createdAt,value
2022-08-28T00:01:01.769Z,59.92
2022-08-28T00:03:28.851Z,59.95
2022-08-28T00:05:57.329Z,59.97
2022-08-28T00:08:24.321Z,60.18
2022-08-28T00:10:51.321Z,60.23
2022-08-28T00:13:22.491Z,60.41
2022-08-28T00:15:56.315Z,60.47
2022-08-28T00:18:23.577Z,60.65
2022-08-28T00:20:52.370Z,60.91
2022-08-28T00:23:20.201Z,60.92
2022-08-28T00:25:47.572Z,60.70
2022-08-28T00:28:24.304Z,60.84
2022-08-28T00:30:55.164Z,60.44
2022-08-28T00:33:24.160Z,60.32
2022-08-28T00:35:52.097Z,59.86
2022-08-28T00:38:21.074Z,60.36
2022-08-28T00:40:51.897Z,60.00
2022-08-28T00:43:47.768Z,60.44
2022-08-28T00:46:23.991Z,60.43
2022-08-28T00:48:51.004Z,60.55
2022-08-28T00:51:38.649Z,60.60
2022-08-28T00:54:08.402Z,60.31
2022-08-28T00:56:39.763Z,60.89
2022-08-28T00:59:15.916Z,60.62
2022-08-28T01:01:45.523Z,60.77
2022-08-28T01:04:23.646Z,60.74
2022-08-28T01:06:54.110Z,60.98
2022-08-28T01:09:26.015Z,60.78
2022-08-28T01:12:03.040Z,60.96
2022-08-28T01:14:33.838Z,60.95
2022-08-28T01:17:01.314Z,61.10
2022-08-28T01:19:48.148Z,60.98
2022-08-28T01:22:37.289Z,60.72
2022-08-28T01:25:12.465Z,60.61
2022-08-28T01:27:42.030Z,60.54
2022-08-28T01:30:17.617Z,60.31
2022-08-28T01:32:49.989Z,60.41
2022-08-28T01:35:23.646Z,60.19
2022-08-28T01:38:09.314Z,60.21
2022-08-28T01:40:45.078Z,60.26
2022-08-28T01:43:21.483Z,60.58
2022-08-28T01:45:56.194Z,60.32
2022-08-28T01:48:26.251Z,60.52
2022-08-28T01:50:53.191Z,60.43
2022-08-28T01:53:30.739Z,60.76
2022-08-28T01:56:04.526Z,60.70
2022-08-28T01:58:36.188Z,60.41
2022-08-28T02:01:09.862Z,60.73
2022-08-28T02:03:37.014Z,60.58
2022-08-28T02:06:04.529Z,60.68
2022-08-28T02:08:31.535Z,60.73
2022-08-28T02:10:58.986Z,60.55
2022-08-28T02:13:25.925Z,60.86
2022-08-28T02:15:53.093Z,60.72
2022-08-28T02:18:20.355Z,60.73
2022-08-28T02:20:47.488Z,60.91
2022-08-28T02:23:16.779Z,60.69
2022-08-28T02:25:43.695Z,60.82
2022-08-28T02:28:11.000Z,60.59
2022-08-28T02:30:38.837Z,60.81
2022-08-28T02:33:07.034Z,60.87
2022-08-28T02:35:33.978Z,60.54
2022-08-28T02:38:01.579Z,60.82
2022-08-28T02:40:29.124Z,60.85
2022-08-28T02:42:56.182Z,60.67
2022-08-28T02:45:23.217Z,60.96
2022-08-28T02:47:54.192Z,60.39
2022-08-28T02:50:21.821Z,60.51
2022-08-28T02:52:49.312Z,60.15
2022-08-28T02:55:19.107Z,60.35
2022-08-28T02:57:48.337Z,59.99
2022-08-28T03:00:21.753Z,60.02
2022-08-28T03:02:50.510Z,60.09
2022-08-28T03:05:23.331Z,60.10
2022-08-28T03:07:53.362Z,59.99
2022-08-28T03:10:21.657Z,60.07
2022-08-28T03:12:49.316Z,59.91
2022-08-28T03:15:18.000Z,59.86
2022-08-28T03:17:45.560Z,59.51
2022-08-28T03:20:18.983Z,59.71
2022-08-28T03:23:04.804Z,59.87
2022-08-28T03:25:31.952Z,60.00
2022-08-28T03:27:58.869Z,59.76
2022-08-28T03:30:26.033Z,59.63
2022-08-28T03:32:53.857Z,59.61
2022-08-28T03:35:21.899Z,59.80
2022-08-28T03:37:48.865Z,59.31
2022-08-28T03:40:16.279Z,59.40
2022-08-28T03:42:43.207Z,59.43
2022-08-28T03:45:20.160Z,59.40
2022-08-28T03:47:47.008Z,59.19
2022-08-28T03:50:14.510Z,58.86
2022-08-28T03:52:41.694Z,58.87
2022-08-28T03:55:12.621Z,58.96
2022-08-28T03:57:40.387Z,59.25
2022-08-28T04:00:12.211Z,58.89
2022-08-28T04:02:43.737Z,59.15
2022-08-28T04:05:12.007Z,59.21
2022-08-28T04:07:40.080Z,58.92
2022-08-28T04:10:07.974Z,58.94
2022-08-28T04:12:36.910Z,58.73
2022-08-28T04:15:07.446Z,58.80
2022-08-28T04:17:36.980Z,58.84
2022-08-28T04:20:05.065Z,58.72
2022-08-28T04:22:31.941Z,58.71
2022-08-28T04:24:58.921Z,59.45
2022-08-28T04:27:25.867Z,59.31
2022-08-28T04:29:53.033Z,59.50
2022-08-28T04:32:19.982Z,59.42
2022-08-28T04:34:46.925Z,59.63
2022-08-28T04:37:13.800Z,59.34
2022-08-28T04:39:40.680Z,59.33
2022-08-28T04:42:07.906Z,59.18
2022-08-28T04:44:35.055Z,59.86
2022-08-28T04:47:02.297Z,59.55
2022-08-28T04:49:29.324Z,59.53
2022-08-28T04:51:56.194Z,59.52
2022-08-28T04:54:23.083Z,59.50
2022-08-28T04:56:50.023Z,59.71
2022-08-28T04:59:16.950Z,59.50
2022-08-28T05:01:44.056Z,58.92
2022-08-28T05:04:12.676Z,59.10
2022-08-28T05:06:45.919Z,59.13
2022-08-28T05:09:19.372Z,58.99
2022-08-28T05:11:48.515Z,58.79
2022-08-28T05:14:16.449Z,58.97
2022-08-28T05:16:48.675Z,58.95
2022-08-28T05:19:18.399Z,58.92
2022-08-28T05:21:45.709Z,58.91
2022-08-28T05:24:13.844Z,58.95
2022-08-28T05:26:40.941Z,58.79
2022-08-28T05:29:09.915Z,58.82
2022-08-28T05:31:39.003Z,58.72
2022-08-28T05:34:07.393Z,58.81
2022-08-28T05:36:37.425Z,58.17
2022-08-28T05:39:09.250Z,58.44
2022-08-28T05:41:39.171Z,58.43
2022-08-28T05:44:11.032Z,58.81
2022-08-28T05:46:41.483Z,58.55
2022-08-28T05:49:10.269Z,58.33
2022-08-28T05:51:42.046Z,58.45
2022-08-28T05:54:10.056Z,58.60
2022-08-28T05:56:40.649Z,58.47
2022-08-28T05:59:08.566Z,58.56
2022-08-28T06:01:43.981Z,58.57
2022-08-28T06:04:21.171Z,57.98
2022-08-28T06:06:49.440Z,58.48
2022-08-28T06:09:25.337Z,58.01
2022-08-28T06:12:00.960Z,58.17
2022-08-28T06:14:29.661Z,58.07
2022-08-28T06:16:58.324Z,58.27
2022-08-28T06:19:28.753Z,58.06
2022-08-28T06:21:59.503Z,58.09
2022-08-28T06:24:28.395Z,57.99
2022-08-28T06:26:58.176Z,58.10
2022-08-28T06:29:27.779Z,58.02
2022-08-28T06:31:58.440Z,58.02
2022-08-28T06:34:27.038Z,57.97
2022-08-28T06:36:55.380Z,57.93
2022-08-28T06:39:22.993Z,57.75
2022-08-28T06:41:50.055Z,57.67
2022-08-28T06:44:20.706Z,57.53
2022-08-28T06:46:51.832Z,57.44
2022-08-28T06:49:21.398Z,57.41
2022-08-28T06:51:48.720Z,56.93
2022-08-28T06:54:22.151Z,57.21
2022-08-28T06:56:50.880Z,56.99
2022-08-28T06:59:17.946Z,56.84
2022-08-28T07:01:44.866Z,56.75
2022-08-28T07:04:14.562Z,56.78
2022-08-28T07:06:46.820Z,55.78
2022-08-28T07:09:14.221Z,55.66
2022-08-28T07:11:46.612Z,55.28
2022-08-28T07:14:13.473Z,55.26
2022-08-28T07:16:41.858Z,54.70
2022-08-28T07:19:11.981Z,54.75
2022-08-28T07:21:43.236Z,54.85
2022-08-28T07:24:13.253Z,54.78
2022-08-28T07:26:42.303Z,54.96
2022-08-28T07:29:11.706Z,54.46
2022-08-28T07:31:46.458Z,54.28
2022-08-28T07:34:15.655Z,54.11
2022-08-28T07:36:43.141Z,53.92
2022-08-28T07:39:13.661Z,54.21
2022-08-28T07:41:42.738Z,54.20
2022-08-28T07:44:31.817Z,53.82
2022-08-28T07:47:05.571Z,54.11
2022-08-28T07:49:34.719Z,54.04
2022-08-28T07:52:02.465Z,53.87
2022-08-28T07:54:29.408Z,53.89
2022-08-28T07:56:56.290Z,53.48
2022-08-28T07:59:23.601Z,53.60
2022-08-28T08:01:52.141Z,53.26
2022-08-28T08:04:21.031Z,53.01
2022-08-28T08:06:48.997Z,52.86
2022-08-28T08:09:19.242Z,52.87
2022-08-28T08:11:47.823Z,52.58
2022-08-28T08:14:17.475Z,52.14
2022-08-28T08:16:46.807Z,52.31
2022-08-28T08:19:15.018Z,52.40
2022-08-28T08:21:54.521Z,52.27
2022-08-28T08:24:28.305Z,52.12
2022-08-28T08:27:01.151Z,51.99
2022-08-28T08:29:36.162Z,51.85
2022-08-28T08:32:10.706Z,51.84
2022-08-28T08:34:45.715Z,51.65
2022-08-28T08:37:13.791Z,51.53
2022-08-28T08:39:42.784Z,51.20
2022-08-28T08:42:27.603Z,51.23
2022-08-28T08:44:58.869Z,50.88
2022-08-28T08:47:48.422Z,50.76
2022-08-28T08:50:35.392Z,50.53
2022-08-28T08:53:28.348Z,50.19
2022-08-28T08:55:58.168Z,49.62
2022-08-28T08:58:41.705Z,49.68
2022-08-28T09:01:20.130Z,48.84
2022-08-28T09:03:55.962Z,48.77
2022-08-28T09:07:02.412Z,48.11
2022-08-28T09:09:53.279Z,47.99
2022-08-28T09:12:30.271Z,47.40
2022-08-28T09:15:05.290Z,47.22
2022-08-28T09:17:41.358Z,46.22
2022-08-28T09:20:12.325Z,46.44
2022-08-28T09:22:45.724Z,46.12
2022-08-28T09:25:44.669Z,45.63
2022-08-28T09:28:26.483Z,45.02
2022-08-28T09:31:05.614Z,45.08
2022-08-28T09:33:46.266Z,44.48
2022-08-28T09:36:33.861Z,44.45
2022-08-28T09:39:10.077Z,44.46
2022-08-28T09:42:24.835Z,44.69
2022-08-28T09:45:20.950Z,44.10
2022-08-28T09:47:59.631Z,44.57
2022-08-28T09:50:41.612Z,44.41
2022-08-28T09:53:11.579Z,43.51
2022-08-28T09:56:02.389Z,43.62
2022-08-28T09:58:48.655Z,43.25
2022-08-28T10:01:30.342Z,42.44
2022-08-28T10:04:26.695Z,42.38
2022-08-28T10:06:55.354Z,41.93
2022-08-28T10:10:02.791Z,41.30
2022-08-28T10:12:33.313Z,40.77
2022-08-28T10:15:22.411Z,40.88
2022-08-28T10:18:03.784Z,40.57
2022-08-28T10:20:53.769Z,40.27
2022-08-28T10:23:45.692Z,39.64
2022-08-28T10:26:37.189Z,39.04
2022-08-28T10:29:51.595Z,39.45
2022-08-28T10:32:53.501Z,39.79
2022-08-28T10:35:23.148Z,39.50
2022-08-28T10:38:18.808Z,39.81
2022-08-28T10:41:28.727Z,39.84
2022-08-28T10:44:01.857Z,39.77
2022-08-28T10:46:46.140Z,39.78
2022-08-28T10:49:46.445Z,39.35
2022-08-28T10:52:23.932Z,39.15
2022-08-28T10:55:07.762Z,38.68
2022-08-28T10:57:56.388Z,38.13
2022-08-28T11:00:26.720Z,38.00
2022-08-28T11:03:04.305Z,37.72
2022-08-28T11:05:41.411Z,37.22
2022-08-28T11:08:28.222Z,36.75
2022-08-28T11:10:58.807Z,36.04
2022-08-28T11:13:46.710Z,36.01
2022-08-28T11:16:28.022Z,35.53
2022-08-28T11:19:25.052Z,35.83
2022-08-28T11:22:18.189Z,35.41
2022-08-28T11:25:32.455Z,35.26
2022-08-28T11:28:19.303Z,35.29
2022-08-28T11:31:06.277Z,35.20
2022-08-28T11:33:50.362Z,34.34
2022-08-28T11:36:20.245Z,34.16
2022-08-28T11:38:53.266Z,34.25
2022-08-28T11:41:27.484Z,33.99
2022-08-28T11:44:09.495Z,33.43
2022-08-28T11:47:36.427Z,32.85
2022-08-28T11:50:24.021Z,31.84
2022-08-28T11:53:10.547Z,31.74
2022-08-28T11:56:06.729Z,32.16
2022-08-28T11:59:10.223Z,31.42
2022-08-28T12:01:37.765Z,31.38
2022-08-28T12:04:12.188Z,30.87
2022-08-28T12:07:13.891Z,30.64
2022-08-28T12:09:49.341Z,31.95
2022-08-28T12:12:22.086Z,32.59
2022-08-28T12:14:55.036Z,32.52
2022-08-28T12:17:21.726Z,32.39
2022-08-28T12:20:25.479Z,32.76
2022-08-28T12:22:57.621Z,33.48
2022-08-28T12:25:42.458Z,33.24
2022-08-28T12:28:31.740Z,33.64
2022-08-28T12:31:46.892Z,34.04
2022-08-28T12:34:45.827Z,33.79
2022-08-28T12:37:52.215Z,33.84
2022-08-28T12:40:53.426Z,34.43
2022-08-28T12:43:50.925Z,34.41
2022-08-28T12:46:26.835Z,33.71
2022-08-28T12:48:58.629Z,33.99
2022-08-28T12:51:28.395Z,34.18
2022-08-28T12:54:06.687Z,33.56
2022-08-28T12:56:38.250Z,33.89
2022-08-28T12:59:37.511Z,34.21
2022-08-28T13:02:20.993Z,33.27
2022-08-28T13:04:53.452Z,33.13
2022-08-28T13:07:40.444Z,33.41
2022-08-28T13:10:31.334Z,33.58
2022-08-28T13:13:08.128Z,32.88
2022-08-28T13:16:01.314Z,33.75
2022-08-28T13:19:06.506Z,34.10
2022-08-28T13:21:37.383Z,33.54
2022-08-28T13:24:22.790Z,33.35
2022-08-28T13:27:13.948Z,33.82
2022-08-28T13:30:00.030Z,33.92
2022-08-28T13:32:34.819Z,34.28
2022-08-28T13:35:21.820Z,34.32
2022-08-28T13:38:13.266Z,33.76
2022-08-28T13:41:12.634Z,32.67
2022-08-28T13:43:47.319Z,33.31
2022-08-28T13:46:14.233Z,33.21
2022-08-28T13:48:41.077Z,32.91
2022-08-28T13:51:20.136Z,32.64
2022-08-28T13:53:49.246Z,32.54
2022-08-28T13:56:17.263Z,33.29
2022-08-28T13:58:44.584Z,33.58
2022-08-28T14:01:20.356Z,33.56
2022-08-28T14:03:53.431Z,33.55
2022-08-28T14:06:20.260Z,33.35
2022-08-28T14:08:50.661Z,33.37
2022-08-28T14:11:17.493Z,32.49
2022-08-28T14:13:47.341Z,31.68
2022-08-28T14:16:25.372Z,31.52
2022-08-28T14:18:52.809Z,31.29
2022-08-28T14:21:20.794Z,31.46
2022-08-28T14:23:47.669Z,32.22
2022-08-28T14:26:14.472Z,31.18
2022-08-28T14:28:42.273Z,31.97
2022-08-28T14:31:14.265Z,32.00
2022-08-28T14:33:45.215Z,32.40
2022-08-28T14:36:23.415Z,31.77
2022-08-28T14:38:54.302Z,31.90
2022-08-28T14:41:24.039Z,31.90
2022-08-28T14:43:51.648Z,31.97
2022-08-28T14:46:28.517Z,32.59
2022-08-28T14:48:58.802Z,32.29
2022-08-28T14:51:27.362Z,32.08
2022-08-28T14:53:54.636Z,32.60
2022-08-28T14:56:22.437Z,32.71
2022-08-28T14:58:49.352Z,32.51
2022-08-28T15:01:40.681Z,32.55
2022-08-28T15:04:12.272Z,32.54
2022-08-28T15:06:41.619Z,33.47
2022-08-28T15:09:10.781Z,33.11
2022-08-28T15:11:38.282Z,33.09
2022-08-28T15:14:06.457Z,33.24
2022-08-28T15:16:39.178Z,33.38
2022-08-28T15:19:12.069Z,33.39
2022-08-28T15:21:52.589Z,32.53
2022-08-28T15:24:25.238Z,32.41
2022-08-28T15:26:52.733Z,33.12
2022-08-28T15:29:20.265Z,33.36
2022-08-28T15:31:49.992Z,33.28
2022-08-28T15:34:22.237Z,33.85
2022-08-28T15:36:55.345Z,33.96
2022-08-28T15:39:43.567Z,33.66
2022-08-28T15:42:11.302Z,33.29
2022-08-28T15:44:38.874Z,33.91
2022-08-28T15:47:06.807Z,33.75
2022-08-28T15:49:43.566Z,34.30
2022-08-28T15:52:18.653Z,34.45
2022-08-28T15:54:45.852Z,34.06
2022-08-28T15:57:12.690Z,34.34
2022-08-28T15:59:48.877Z,34.59
2022-08-28T16:02:23.207Z,33.78
2022-08-28T16:04:51.087Z,34.39
2022-08-28T16:07:19.430Z,34.12
2022-08-28T16:09:46.467Z,34.03
2022-08-28T16:12:13.868Z,33.73
2022-08-28T16:14:40.972Z,33.11
2022-08-28T16:17:11.087Z,32.87
2022-08-28T16:19:42.338Z,33.59
2022-08-28T16:22:12.579Z,33.70
2022-08-28T16:24:39.394Z,33.70
2022-08-28T16:27:09.513Z,33.58
2022-08-28T16:29:40.716Z,33.55
2022-08-28T16:32:07.778Z,33.93
2022-08-28T16:34:35.129Z,33.68
2022-08-28T16:37:04.329Z,34.22
2022-08-28T16:39:31.449Z,34.45
2022-08-28T16:41:58.802Z,34.43
2022-08-28T16:44:26.564Z,34.24
2022-08-28T16:46:55.566Z,34.18
2022-08-28T16:49:23.584Z,33.92
2022-08-28T16:51:50.539Z,34.25
2022-08-28T16:54:18.269Z,33.80
2022-08-28T16:56:46.231Z,34.16
2022-08-28T16:59:16.401Z,34.36
2022-08-28T17:01:43.486Z,34.56
2022-08-28T17:04:10.821Z,34.37
2022-08-28T17:06:37.656Z,34.95
2022-08-28T17:09:04.434Z,34.71
2022-08-28T17:11:31.945Z,34.89
2022-08-28T17:14:00.331Z,34.99
2022-08-28T17:16:31.403Z,34.99
2022-08-28T17:18:59.351Z,35.00
2022-08-28T17:21:44.686Z,35.22
2022-08-28T17:24:13.641Z,35.30
2022-08-28T17:26:42.320Z,35.34
2022-08-28T17:29:09.326Z,35.33
2022-08-28T17:31:36.792Z,35.32
2022-08-28T17:34:07.348Z,35.12
2022-08-28T17:36:36.303Z,35.31
2022-08-28T17:39:10.474Z,35.32
2022-08-28T17:41:38.129Z,35.06
2022-08-28T17:44:06.016Z,35.37
2022-08-28T17:46:37.467Z,35.44
2022-08-28T17:49:07.038Z,35.83
2022-08-28T17:51:43.760Z,35.82
2022-08-28T17:54:21.301Z,36.07
2022-08-28T17:56:49.380Z,36.86
2022-08-28T17:59:16.697Z,37.04
2022-08-28T18:01:44.911Z,37.11
2022-08-28T18:04:14.467Z,37.16
2022-08-28T18:06:41.326Z,37.53
2022-08-28T18:09:09.797Z,37.45
2022-08-28T18:11:37.399Z,37.49
2022-08-28T18:14:04.856Z,37.49
2022-08-28T18:16:35.026Z,37.76
2022-08-28T18:19:04.693Z,37.81
2022-08-28T18:21:32.000Z,37.89
2022-08-28T18:23:58.903Z,38.25
2022-08-28T18:26:26.095Z,37.89
2022-08-28T18:28:52.976Z,37.74
2022-08-28T18:31:20.214Z,38.59
2022-08-28T18:33:47.270Z,38.30
2022-08-28T18:36:15.307Z,38.09
2022-08-28T18:38:44.157Z,38.39
2022-08-28T18:41:12.022Z,38.78
2022-08-28T18:43:39.126Z,38.54
2022-08-28T18:46:09.193Z,38.98
2022-08-28T18:48:37.730Z,38.57
2022-08-28T18:51:12.256Z,39.05
2022-08-28T18:53:42.360Z,38.72
2022-08-28T18:56:11.019Z,39.56
2022-08-28T18:58:41.708Z,39.29
2022-08-28T19:01:09.794Z,39.29
2022-08-28T19:03:37.346Z,39.63
2022-08-28T19:06:06.192Z,39.79
2022-08-28T19:08:33.185Z,40.11
2022-08-28T19:11:00.008Z,40.26
2022-08-28T19:13:27.808Z,40.21
2022-08-28T19:15:54.771Z,39.79
2022-08-28T19:18:21.821Z,40.09
2022-08-28T19:20:48.772Z,39.96
2022-08-28T19:23:17.875Z,40.13
2022-08-28T19:25:44.922Z,39.63
2022-08-28T19:28:11.737Z,39.42
2022-08-28T19:30:38.557Z,39.03
2022-08-28T19:33:05.917Z,39.49
2022-08-28T19:35:33.754Z,39.00
2022-08-28T19:38:01.469Z,39.05
2022-08-28T19:40:29.058Z,39.06
2022-08-28T19:42:56.150Z,38.72
2022-08-28T19:45:23.169Z,38.90
2022-08-28T19:47:50.112Z,38.95
2022-08-28T19:50:17.312Z,38.75
2022-08-28T19:52:44.939Z,39.06
2022-08-28T19:55:23.368Z,39.09
2022-08-28T19:57:50.446Z,39.19
2022-08-28T20:00:20.605Z,39.15
2022-08-28T20:02:52.128Z,38.96
2022-08-28T20:05:20.646Z,39.03
2022-08-28T20:07:48.146Z,38.76
2022-08-28T20:10:16.242Z,38.64
2022-08-28T20:12:48.086Z,38.70
2022-08-28T20:15:17.927Z,38.51
2022-08-28T20:17:49.411Z,38.64
2022-08-28T20:20:20.367Z,38.28
2022-08-28T20:22:47.472Z,38.28
2022-08-28T20:25:15.606Z,37.97
2022-08-28T20:27:42.448Z,37.84
2022-08-28T20:30:11.318Z,37.67
2022-08-28T20:32:40.533Z,37.39
2022-08-28T20:35:11.214Z,37.40
2022-08-28T20:37:45.088Z,37.51
2022-08-28T20:40:17.989Z,37.67
2022-08-28T20:42:46.015Z,37.93
2022-08-28T20:45:15.491Z,37.65
2022-08-28T20:47:43.041Z,37.49
2022-08-28T20:50:10.206Z,37.82
2022-08-28T20:52:37.901Z,37.45
2022-08-28T20:55:07.664Z,37.79
2022-08-28T20:57:35.904Z,37.79
2022-08-28T21:00:06.728Z,37.78
2022-08-28T21:02:33.546Z,37.63
2022-08-28T21:05:01.101Z,37.42
2022-08-28T21:07:28.777Z,37.75
2022-08-28T21:10:05.397Z,38.02
2022-08-28T21:12:37.738Z,37.95
2022-08-28T21:15:12.495Z,38.19
2022-08-28T21:17:40.643Z,38.27
2022-08-28T21:20:12.971Z,38.30
2022-08-28T21:22:40.750Z,38.54
2022-08-28T21:25:11.045Z,38.47
2022-08-28T21:27:38.709Z,38.44
2022-08-28T21:30:08.212Z,38.42
2022-08-28T21:32:36.099Z,38.41
2022-08-28T21:35:06.690Z,38.45
2022-08-28T21:37:34.147Z,38.58
2022-08-28T21:40:02.246Z,38.78
2022-08-28T21:42:29.376Z,38.91
2022-08-28T21:44:56.203Z,39.06
2022-08-28T21:47:24.601Z,39.17
2022-08-28T21:49:55.445Z,38.97
2022-08-28T21:52:26.889Z,38.92
2022-08-28T21:55:02.444Z,39.14
2022-08-28T21:57:30.470Z,39.37
2022-08-28T21:59:58.408Z,39.50
2022-08-28T22:02:25.621Z,39.56
2022-08-28T22:04:52.742Z,39.59
2022-08-28T22:07:20.795Z,39.61
2022-08-28T22:09:47.659Z,39.37
2022-08-28T22:12:15.368Z,39.62
2022-08-28T22:14:42.292Z,39.71
2022-08-28T22:17:11.588Z,39.68
2022-08-28T22:19:39.703Z,39.49
2022-08-28T22:22:26.283Z,39.78
2022-08-28T22:24:53.402Z,39.70
2022-08-28T22:27:20.356Z,39.59
2022-08-28T22:29:47.257Z,39.81
2022-08-28T22:32:15.206Z,39.90
2022-08-28T22:34:46.051Z,39.86
2022-08-28T22:37:13.646Z,39.94
2022-08-28T22:39:42.079Z,40.18
2022-08-28T22:42:10.003Z,40.19
2022-08-28T22:44:38.478Z,39.62
2022-08-28T22:47:05.934Z,39.92
2022-08-28T22:49:33.136Z,40.11
2022-08-28T22:51:59.931Z,40.53
2022-08-28T22:54:26.876Z,40.54
2022-08-28T22:56:53.668Z,41.00
2022-08-28T22:59:20.704Z,42.10
2022-08-28T23:01:47.559Z,42.40
2022-08-28T23:04:14.575Z,42.94
2022-08-28T23:06:41.427Z,43.52
2022-08-28T23:09:08.834Z,44.35
2022-08-28T23:11:37.513Z,44.98
2022-08-28T23:14:05.769Z,45.02
2022-08-28T23:16:35.330Z,45.32
2022-08-28T23:19:13.103Z,45.22
2022-08-28T23:21:43.676Z,45.31
2022-08-28T23:24:12.817Z,44.77
2022-08-28T23:26:39.788Z,44.71
2022-08-28T23:29:06.607Z,44.37
2022-08-28T23:31:33.462Z,43.99
2022-08-28T23:34:00.342Z,43.81
2022-08-28T23:36:27.330Z,44.15
2022-08-28T23:38:54.151Z,44.06
2022-08-28T23:41:21.307Z,43.79
2022-08-28T23:43:49.240Z,43.98
2022-08-28T23:46:20.865Z,43.99
2022-08-28T23:48:49.769Z,43.94
2022-08-28T23:51:17.456Z,44.29
2022-08-28T23:53:46.002Z,44.27
2022-08-28T23:56:14.683Z,44.42
2022-08-28T23:58:43.299Z,44.45
